sensor_id;sensor_type;location;lat;lon;timestamp;pressure;altitude;pressure_sealevel;temperature
41593;BMP180;28026;48.562;14.440;2023-03-15T00:01:42;92815.00;;;10.70
41593;BMP180;28026;48.562;14.440;2023-03-15T00:04:15;92820.00;;;10.70
41593;BMP180;28026;48.562;14.440;2023-03-15T00:06:46;92809.00;;;10.70
41593;BMP180;28026;48.562;14.440;2023-03-15T00:09:17;92807.00;;;10.70
41593;BMP180;28026;48.562;14.440;2023-03-15T00:11:50;92807.00;;;10.60
41593;BMP180;28026;48.562;14.440;2023-03-15T00:14:24;92801.00;;;10.70
41593;BMP180;28026;48.562;14.440;2023-03-15T00:16:54;92812.00;;;10.70
41593;BMP180;28026;48.562;14.440;2023-03-15T00:19:25;92813.00;;;10.70
41593;BMP180;28026;48.562;14.440;2023-03-15T00:21:56;92818.00;;;10.80
41593;BMP180;28026;48.562;14.440;2023-03-15T00:24:27;92822.00;;;10.80
41593;BMP180;28026;48.562;14.440;2023-03-15T00:26:58;92821.00;;;10.80
41593;BMP180;28026;48.562;14.440;2023-03-15T00:29:29;92818.00;;;10.80
41593;BMP180;28026;48.562;14.440;2023-03-15T00:32:00;92819.00;;;10.80
41593;BMP180;28026;48.562;14.440;2023-03-15T00:34:32;92830.00;;;10.90
41593;BMP180;28026;48.562;14.440;2023-03-15T00:37:03;92829.00;;;10.90
41593;BMP180;28026;48.562;14.440;2023-03-15T00:39:34;92829.00;;;10.90
41593;BMP180;28026;48.562;14.440;2023-03-15T00:42:07;92827.00;;;11.00
41593;BMP180;28026;48.562;14.440;2023-03-15T00:44:38;92818.00;;;11.00
41593;BMP180;28026;48.562;14.440;2023-03-15T00:47:11;92820.00;;;11.00
41593;BMP180;28026;48.562;14.440;2023-03-15T00:49:42;92830.00;;;11.10
41593;BMP180;28026;48.562;14.440;2023-03-15T00:52:13;92823.00;;;11.10
41593;BMP180;28026;48.562;14.440;2023-03-15T00:54:54;92822.00;;;11.00
41593;BMP180;28026;48.562;14.440;2023-03-15T00:57:25;92832.00;;;10.90
41593;BMP180;28026;48.562;14.440;2023-03-15T00:59:56;92824.00;;;10.90
41593;BMP180;28026;48.562;14.440;2023-03-15T01:02:27;92824.00;;;10.90
41593;BMP180;28026;48.562;14.440;2023-03-15T01:04:58;92819.00;;;10.90
41593;BMP180;28026;48.562;14.440;2023-03-15T01:07:29;92824.00;;;10.90
41593;BMP180;28026;48.562;14.440;2023-03-15T01:10:05;92821.00;;;10.90
41593;BMP180;28026;48.562;14.440;2023-03-15T01:12:36;92820.00;;;10.90
41593;BMP180;28026;48.562;14.440;2023-03-15T01:15:10;92830.00;;;10.80
41593;BMP180;28026;48.562;14.440;2023-03-15T01:17:45;92832.00;;;10.80
41593;BMP180;28026;48.562;14.440;2023-03-15T01:20:16;92839.00;;;10.80
41593;BMP180;28026;48.562;14.440;2023-03-15T01:22:47;92830.00;;;10.70
41593;BMP180;28026;48.562;14.440;2023-03-15T01:25:18;92825.00;;;10.70
41593;BMP180;28026;48.562;14.440;2023-03-15T01:27:49;92827.00;;;10.70
41593;BMP180;28026;48.562;14.440;2023-03-15T01:30:20;92830.00;;;10.60
41593;BMP180;28026;48.562;14.440;2023-03-15T01:32:50;92831.00;;;10.60
41593;BMP180;28026;48.562;14.440;2023-03-15T01:35:21;92832.00;;;10.60
41593;BMP180;28026;48.562;14.440;2023-03-15T01:37:52;92837.00;;;10.50
41593;BMP180;28026;48.562;14.440;2023-03-15T01:40:23;92838.00;;;10.60
41593;BMP180;28026;48.562;14.440;2023-03-15T01:48:41;92836.00;;;10.40
41593;BMP180;28026;48.562;14.440;2023-03-15T01:54:39;92830.00;;;10.40
41593;BMP180;28026;48.562;14.440;2023-03-15T01:57:40;92831.00;;;10.30
41593;BMP180;28026;48.562;14.440;2023-03-15T02:00:18;92834.00;;;10.30
41593;BMP180;28026;48.562;14.440;2023-03-15T02:02:59;92830.00;;;10.30
41593;BMP180;28026;48.562;14.440;2023-03-15T02:05:45;92823.00;;;10.30
41593;BMP180;28026;48.562;14.440;2023-03-15T02:08:21;92828.00;;;10.30
41593;BMP180;28026;48.562;14.440;2023-03-15T02:10:59;92830.00;;;10.30
41593;BMP180;28026;48.562;14.440;2023-03-15T02:13:34;92828.00;;;10.40
41593;BMP180;28026;48.562;14.440;2023-03-15T02:16:06;92829.00;;;10.40
41593;BMP180;28026;48.562;14.440;2023-03-15T02:18:37;92830.00;;;10.40
41593;BMP180;28026;48.562;14.440;2023-03-15T02:21:32;92829.00;;;10.50
41593;BMP180;28026;48.562;14.440;2023-03-15T02:24:57;92831.00;;;10.40
41593;BMP180;28026;48.562;14.440;2023-03-15T02:27:34;92825.00;;;10.50
41593;BMP180;28026;48.562;14.440;2023-03-15T02:30:07;92825.00;;;10.60
41593;BMP180;28026;48.562;14.440;2023-03-15T02:32:40;92824.00;;;10.60
41593;BMP180;28026;48.562;14.440;2023-03-15T02:35:11;92831.00;;;10.60
41593;BMP180;28026;48.562;14.440;2023-03-15T02:37:42;92814.00;;;10.60
41593;BMP180;28026;48.562;14.440;2023-03-15T02:40:22;92814.00;;;10.60
41593;BMP180;28026;48.562;14.440;2023-03-15T02:42:59;92831.00;;;10.50
41593;BMP180;28026;48.562;14.440;2023-03-15T02:45:36;92838.00;;;10.60
41593;BMP180;28026;48.562;14.440;2023-03-15T02:48:10;92839.00;;;10.60
41593;BMP180;28026;48.562;14.440;2023-03-15T02:50:42;92845.00;;;10.60
41593;BMP180;28026;48.562;14.440;2023-03-15T02:53:13;92843.00;;;10.60
41593;BMP180;28026;48.562;14.440;2023-03-15T02:55:44;92859.00;;;10.50
41593;BMP180;28026;48.562;14.440;2023-03-15T02:58:15;92855.00;;;10.50
41593;BMP180;28026;48.562;14.440;2023-03-15T03:00:46;92856.00;;;10.50
41593;BMP180;28026;48.562;14.440;2023-03-15T03:03:17;92862.00;;;10.60
41593;BMP180;28026;48.562;14.440;2023-03-15T03:05:48;92862.00;;;10.60
41593;BMP180;28026;48.562;14.440;2023-03-15T03:08:19;92874.00;;;10.50
41593;BMP180;28026;48.562;14.440;2023-03-15T03:10:49;92876.00;;;10.60
41593;BMP180;28026;48.562;14.440;2023-03-15T03:13:20;92882.00;;;10.60
41593;BMP180;28026;48.562;14.440;2023-03-15T03:15:51;92875.00;;;10.60
41593;BMP180;28026;48.562;14.440;2023-03-15T03:18:29;92884.00;;;10.60
41593;BMP180;28026;48.562;14.440;2023-03-15T03:21:06;92891.00;;;10.60
41593;BMP180;28026;48.562;14.440;2023-03-15T03:23:37;92891.00;;;10.60
41593;BMP180;28026;48.562;14.440;2023-03-15T03:26:17;92885.00;;;10.70
41593;BMP180;28026;48.562;14.440;2023-03-15T03:28:48;92889.00;;;10.70
41593;BMP180;28026;48.562;14.440;2023-03-15T03:31:23;92891.00;;;10.80
41593;BMP180;28026;48.562;14.440;2023-03-15T03:33:55;92900.00;;;10.80
41593;BMP180;28026;48.562;14.440;2023-03-15T03:36:26;92882.00;;;10.80
41593;BMP180;28026;48.562;14.440;2023-03-15T03:38:57;92888.00;;;10.80
41593;BMP180;28026;48.562;14.440;2023-03-15T03:41:28;92895.00;;;10.80
41593;BMP180;28026;48.562;14.440;2023-03-15T03:43:59;92899.00;;;10.80
41593;BMP180;28026;48.562;14.440;2023-03-15T03:46:30;92895.00;;;10.90
41593;BMP180;28026;48.562;14.440;2023-03-15T03:49:01;92891.00;;;10.90
41593;BMP180;28026;48.562;14.440;2023-03-15T03:51:32;92901.00;;;10.90
41593;BMP180;28026;48.562;14.440;2023-03-15T03:54:04;92898.00;;;10.90
41593;BMP180;28026;48.562;14.440;2023-03-15T03:56:35;92909.00;;;10.90
41593;BMP180;28026;48.562;14.440;2023-03-15T03:59:07;92910.00;;;10.90
41593;BMP180;28026;48.562;14.440;2023-03-15T04:01:39;92912.00;;;10.80
41593;BMP180;28026;48.562;14.440;2023-03-15T04:04:11;92909.00;;;10.80
41593;BMP180;28026;48.562;14.440;2023-03-15T04:06:43;92914.00;;;10.70
41593;BMP180;28026;48.562;14.440;2023-03-15T04:09:15;92915.00;;;10.70
41593;BMP180;28026;48.562;14.440;2023-03-15T04:11:47;92922.00;;;10.60
41593;BMP180;28026;48.562;14.440;2023-03-15T04:14:18;92926.00;;;10.50
41593;BMP180;28026;48.562;14.440;2023-03-15T04:16:50;92927.00;;;10.50
41593;BMP180;28026;48.562;14.440;2023-03-15T04:19:20;92930.00;;;10.40
41593;BMP180;28026;48.562;14.440;2023-03-15T04:21:51;92926.00;;;10.40
41593;BMP180;28026;48.562;14.440;2023-03-15T04:24:22;92936.00;;;10.40
41593;BMP180;28026;48.562;14.440;2023-03-15T04:26:53;92949.00;;;10.20
41593;BMP180;28026;48.562;14.440;2023-03-15T04:29:27;92963.00;;;10.10
41593;BMP180;28026;48.562;14.440;2023-03-15T04:31:59;92966.00;;;10.00
41593;BMP180;28026;48.562;14.440;2023-03-15T04:34:31;92981.00;;;9.90
41593;BMP180;28026;48.562;14.440;2023-03-15T04:37:02;92989.00;;;9.90
41593;BMP180;28026;48.562;14.440;2023-03-15T04:39:33;92986.00;;;9.80
41593;BMP180;28026;48.562;14.440;2023-03-15T04:42:05;92999.00;;;9.70
41593;BMP180;28026;48.562;14.440;2023-03-15T04:44:36;93002.00;;;9.60
41593;BMP180;28026;48.562;14.440;2023-03-15T04:47:07;93004.00;;;9.60
41593;BMP180;28026;48.562;14.440;2023-03-15T04:49:37;93005.00;;;9.60
41593;BMP180;28026;48.562;14.440;2023-03-15T04:52:08;93001.00;;;9.50
41593;BMP180;28026;48.562;14.440;2023-03-15T04:54:39;93002.00;;;9.50
41593;BMP180;28026;48.562;14.440;2023-03-15T04:57:10;92996.00;;;9.40
41593;BMP180;28026;48.562;14.440;2023-03-15T04:59:41;93004.00;;;9.40
41593;BMP180;28026;48.562;14.440;2023-03-15T05:02:12;93009.00;;;9.40
41593;BMP180;28026;48.562;14.440;2023-03-15T05:04:43;93020.00;;;9.30
41593;BMP180;28026;48.562;14.440;2023-03-15T05:07:14;93032.00;;;9.30
41593;BMP180;28026;48.562;14.440;2023-03-15T05:09:44;93038.00;;;9.20
41593;BMP180;28026;48.562;14.440;2023-03-15T05:12:16;93045.00;;;9.20
41593;BMP180;28026;48.562;14.440;2023-03-15T05:14:47;93040.00;;;9.20
41593;BMP180;28026;48.562;14.440;2023-03-15T05:17:18;93047.00;;;9.20
41593;BMP180;28026;48.562;14.440;2023-03-15T05:19:49;93058.00;;;9.10
41593;BMP180;28026;48.562;14.440;2023-03-15T05:22:21;93061.00;;;9.00
41593;BMP180;28026;48.562;14.440;2023-03-15T05:24:55;93067.00;;;8.90
41593;BMP180;28026;48.562;14.440;2023-03-15T05:27:26;93073.00;;;8.90
41593;BMP180;28026;48.562;14.440;2023-03-15T05:29:57;93085.00;;;8.90
41593;BMP180;28026;48.562;14.440;2023-03-15T05:32:30;93095.00;;;8.80
41593;BMP180;28026;48.562;14.440;2023-03-15T05:35:05;93099.00;;;8.80
41593;BMP180;28026;48.562;14.440;2023-03-15T05:37:37;93109.00;;;8.80
41593;BMP180;28026;48.562;14.440;2023-03-15T05:40:09;93113.00;;;8.80
41593;BMP180;28026;48.562;14.440;2023-03-15T05:42:41;93111.00;;;8.80
41593;BMP180;28026;48.562;14.440;2023-03-15T05:45:11;93109.00;;;8.70
41593;BMP180;28026;48.562;14.440;2023-03-15T05:47:42;93102.00;;;8.70
41593;BMP180;28026;48.562;14.440;2023-03-15T05:50:13;93110.00;;;8.60
41593;BMP180;28026;48.562;14.440;2023-03-15T05:52:44;93121.00;;;8.50
41593;BMP180;28026;48.562;14.440;2023-03-15T05:55:15;93133.00;;;8.50
41593;BMP180;28026;48.562;14.440;2023-03-15T05:57:46;93131.00;;;8.40
41593;BMP180;28026;48.562;14.440;2023-03-15T06:00:18;93139.00;;;8.30
41593;BMP180;28026;48.562;14.440;2023-03-15T06:02:49;93143.00;;;8.30
41593;BMP180;28026;48.562;14.440;2023-03-15T06:05:20;93153.00;;;8.30
41593;BMP180;28026;48.562;14.440;2023-03-15T06:07:51;93144.00;;;8.20
41593;BMP180;28026;48.562;14.440;2023-03-15T06:10:22;93153.00;;;8.20
41593;BMP180;28026;48.562;14.440;2023-03-15T06:12:53;93161.00;;;8.20
41593;BMP180;28026;48.562;14.440;2023-03-15T06:15:25;93164.00;;;8.20
41593;BMP180;28026;48.562;14.440;2023-03-15T06:17:56;93161.00;;;8.20
41593;BMP180;28026;48.562;14.440;2023-03-15T06:20:27;93165.00;;;8.20
41593;BMP180;28026;48.562;14.440;2023-03-15T06:22:58;93180.00;;;8.20
41593;BMP180;28026;48.562;14.440;2023-03-15T06:25:29;93187.00;;;8.20
41593;BMP180;28026;48.562;14.440;2023-03-15T06:28:00;93192.00;;;8.30
41593;BMP180;28026;48.562;14.440;2023-03-15T06:30:31;93200.00;;;8.30
41593;BMP180;28026;48.562;14.440;2023-03-15T06:33:02;93205.00;;;8.30
41593;BMP180;28026;48.562;14.440;2023-03-15T06:35:33;93203.00;;;8.30
41593;BMP180;28026;48.562;14.440;2023-03-15T06:38:04;93216.00;;;8.40
41593;BMP180;28026;48.562;14.440;2023-03-15T06:40:34;93214.00;;;8.40
41593;BMP180;28026;48.562;14.440;2023-03-15T06:43:05;93226.00;;;8.50
41593;BMP180;28026;48.562;14.440;2023-03-15T06:45:36;93230.00;;;8.50
41593;BMP180;28026;48.562;14.440;2023-03-15T06:48:13;93239.00;;;8.50
41593;BMP180;28026;48.562;14.440;2023-03-15T06:50:45;93241.00;;;8.50
41593;BMP180;28026;48.562;14.440;2023-03-15T06:53:16;93258.00;;;8.60
41593;BMP180;28026;48.562;14.440;2023-03-15T06:55:47;93267.00;;;8.60
41593;BMP180;28026;48.562;14.440;2023-03-15T06:58:20;93268.00;;;8.60
41593;BMP180;28026;48.562;14.440;2023-03-15T07:00:51;93273.00;;;8.60
41593;BMP180;28026;48.562;14.440;2023-03-15T07:03:22;93281.00;;;8.60
41593;BMP180;28026;48.562;14.440;2023-03-15T07:05:53;93278.00;;;8.70
41593;BMP180;28026;48.562;14.440;2023-03-15T07:08:24;93289.00;;;8.70
41593;BMP180;28026;48.562;14.440;2023-03-15T07:10:55;93292.00;;;8.70
41593;BMP180;28026;48.562;14.440;2023-03-15T07:13:27;93294.00;;;8.70
41593;BMP180;28026;48.562;14.440;2023-03-15T07:15:57;93308.00;;;8.70
41593;BMP180;28026;48.562;14.440;2023-03-15T07:18:28;93308.00;;;8.80
41593;BMP180;28026;48.562;14.440;2023-03-15T07:21:04;93315.00;;;8.80
41593;BMP180;28026;48.562;14.440;2023-03-15T07:23:37;93322.00;;;8.90
41593;BMP180;28026;48.562;14.440;2023-03-15T07:26:08;93315.00;;;9.00
41593;BMP180;28026;48.562;14.440;2023-03-15T07:28:39;93329.00;;;9.00
41593;BMP180;28026;48.562;14.440;2023-03-15T07:31:10;93333.00;;;9.00
41593;BMP180;28026;48.562;14.440;2023-03-15T07:33:42;93329.00;;;9.00
41593;BMP180;28026;48.562;14.440;2023-03-15T07:36:13;93333.00;;;9.00
41593;BMP180;28026;48.562;14.440;2023-03-15T07:38:44;93350.00;;;9.00
41593;BMP180;28026;48.562;14.440;2023-03-15T07:41:15;93351.00;;;9.00
41593;BMP180;28026;48.562;14.440;2023-03-15T07:43:45;93357.00;;;9.00
41593;BMP180;28026;48.562;14.440;2023-03-15T07:46:16;93354.00;;;9.10
41593;BMP180;28026;48.562;14.440;2023-03-15T07:48:47;93361.00;;;9.10
41593;BMP180;28026;48.562;14.440;2023-03-15T07:51:18;93371.00;;;9.10
41593;BMP180;28026;48.562;14.440;2023-03-15T07:53:49;93379.00;;;9.00
41593;BMP180;28026;48.562;14.440;2023-03-15T07:56:20;93386.00;;;9.00
41593;BMP180;28026;48.562;14.440;2023-03-15T07:58:51;93395.00;;;8.90
41593;BMP180;28026;48.562;14.440;2023-03-15T08:01:22;93397.00;;;9.00
41593;BMP180;28026;48.562;14.440;2023-03-15T08:03:53;93399.00;;;9.00
41593;BMP180;28026;48.562;14.440;2023-03-15T08:06:24;93417.00;;;9.00
41593;BMP180;28026;48.562;14.440;2023-03-15T08:08:55;93424.00;;;8.90
41593;BMP180;28026;48.562;14.440;2023-03-15T08:11:25;93422.00;;;8.90
41593;BMP180;28026;48.562;14.440;2023-03-15T08:13:56;93425.00;;;8.90
41593;BMP180;28026;48.562;14.440;2023-03-15T08:16:27;93415.00;;;8.90
41593;BMP180;28026;48.562;14.440;2023-03-15T08:18:59;93429.00;;;9.00
41593;BMP180;28026;48.562;14.440;2023-03-15T08:21:30;93427.00;;;9.00
41593;BMP180;28026;48.562;14.440;2023-03-15T08:24:03;93433.00;;;9.00
41593;BMP180;28026;48.562;14.440;2023-03-15T08:26:34;93435.00;;;9.10
41593;BMP180;28026;48.562;14.440;2023-03-15T08:29:06;93439.00;;;9.10
41593;BMP180;28026;48.562;14.440;2023-03-15T08:31:37;93445.00;;;9.20
41593;BMP180;28026;48.562;14.440;2023-03-15T08:34:08;93451.00;;;9.20
41593;BMP180;28026;48.562;14.440;2023-03-15T08:36:39;93459.00;;;9.30
41593;BMP180;28026;48.562;14.440;2023-03-15T08:39:11;93447.00;;;9.40
41593;BMP180;28026;48.562;14.440;2023-03-15T08:41:42;93457.00;;;9.50
41593;BMP180;28026;48.562;14.440;2023-03-15T08:44:13;93454.00;;;9.70
41593;BMP180;28026;48.562;14.440;2023-03-15T08:46:43;93454.00;;;9.80
41593;BMP180;28026;48.562;14.440;2023-03-15T08:49:14;93462.00;;;9.90
41593;BMP180;28026;48.562;14.440;2023-03-15T08:51:45;93464.00;;;10.10
41593;BMP180;28026;48.562;14.440;2023-03-15T08:54:16;93464.00;;;10.30
41593;BMP180;28026;48.562;14.440;2023-03-15T08:56:47;93455.00;;;10.50
41593;BMP180;28026;48.562;14.440;2023-03-15T08:59:18;93467.00;;;10.90
41593;BMP180;28026;48.562;14.440;2023-03-15T09:01:49;93463.00;;;11.10
41593;BMP180;28026;48.562;14.440;2023-03-15T09:04:20;93461.00;;;11.30
41593;BMP180;28026;48.562;14.440;2023-03-15T09:06:51;93467.00;;;11.40
41593;BMP180;28026;48.562;14.440;2023-03-15T09:09:23;93460.00;;;11.70
41593;BMP180;28026;48.562;14.440;2023-03-15T09:11:54;93465.00;;;11.90
41593;BMP180;28026;48.562;14.440;2023-03-15T09:14:25;93463.00;;;12.10
41593;BMP180;28026;48.562;14.440;2023-03-15T09:16:56;93464.00;;;12.20
41593;BMP180;28026;48.562;14.440;2023-03-15T09:19:27;93462.00;;;12.30
41593;BMP180;28026;48.562;14.440;2023-03-15T09:21:58;93462.00;;;12.40
41593;BMP180;28026;48.562;14.440;2023-03-15T09:24:29;93475.00;;;12.50
41593;BMP180;28026;48.562;14.440;2023-03-15T09:27:00;93467.00;;;12.30
41593;BMP180;28026;48.562;14.440;2023-03-15T09:29:31;93473.00;;;12.20
41593;BMP180;28026;48.562;14.440;2023-03-15T09:32:02;93480.00;;;12.10
41593;BMP180;28026;48.562;14.440;2023-03-15T09:34:34;93479.00;;;12.00
41593;BMP180;28026;48.562;14.440;2023-03-15T09:37:05;93468.00;;;11.90
41593;BMP180;28026;48.562;14.440;2023-03-15T09:39:36;93470.00;;;11.70
41593;BMP180;28026;48.562;14.440;2023-03-15T09:42:20;93466.00;;;11.70
41593;BMP180;28026;48.562;14.440;2023-03-15T09:45:12;93465.00;;;12.10
41593;BMP180;28026;48.562;14.440;2023-03-15T09:48:07;93459.00;;;12.50
41593;BMP180;28026;48.562;14.440;2023-03-15T09:50:56;93461.00;;;12.70
41593;BMP180;28026;48.562;14.440;2023-03-15T09:54:02;93458.00;;;13.00
41593;BMP180;28026;48.562;14.440;2023-03-15T09:56:52;93457.00;;;13.40
41593;BMP180;28026;48.562;14.440;2023-03-15T09:59:38;93462.00;;;13.80
41593;BMP180;28026;48.562;14.440;2023-03-15T10:02:28;93453.00;;;14.10
41593;BMP180;28026;48.562;14.440;2023-03-15T10:05:15;93454.00;;;14.10
41593;BMP180;28026;48.562;14.440;2023-03-15T10:07:50;93455.00;;;14.20
41593;BMP180;28026;48.562;14.440;2023-03-15T10:10:33;93454.00;;;14.20
41593;BMP180;28026;48.562;14.440;2023-03-15T10:13:37;93462.00;;;14.00
41593;BMP180;28026;48.562;14.440;2023-03-15T10:16:40;93464.00;;;14.20
41593;BMP180;28026;48.562;14.440;2023-03-15T10:19:30;93473.00;;;14.30
41593;BMP180;28026;48.562;14.440;2023-03-15T10:25:01;93473.00;;;14.70
41593;BMP180;28026;48.562;14.440;2023-03-15T10:27:47;93482.00;;;14.90
41593;BMP180;28026;48.562;14.440;2023-03-15T10:30:31;93476.00;;;15.10
41593;BMP180;28026;48.562;14.440;2023-03-15T10:33:31;93462.00;;;15.20
41593;BMP180;28026;48.562;14.440;2023-03-15T10:36:19;93474.00;;;15.00
41593;BMP180;28026;48.562;14.440;2023-03-15T10:38:52;93471.00;;;15.10
41593;BMP180;28026;48.562;14.440;2023-03-15T10:41:35;93465.00;;;15.30
41593;BMP180;28026;48.562;14.440;2023-03-15T10:44:35;93477.00;;;15.30
41593;BMP180;28026;48.562;14.440;2023-03-15T10:47:12;93478.00;;;15.10
41593;BMP180;28026;48.562;14.440;2023-03-15T10:49:45;93465.00;;;15.20
41593;BMP180;28026;48.562;14.440;2023-03-15T10:52:31;93469.00;;;15.20
41593;BMP180;28026;48.562;14.440;2023-03-15T10:55:19;93470.00;;;14.60
41593;BMP180;28026;48.562;14.440;2023-03-15T10:58:24;93479.00;;;14.60
41593;BMP180;28026;48.562;14.440;2023-03-15T11:01:04;93472.00;;;14.40
41593;BMP180;28026;48.562;14.440;2023-03-15T11:03:37;93469.00;;;14.50
41593;BMP180;28026;48.562;14.440;2023-03-15T11:06:25;93467.00;;;14.70
41593;BMP180;28026;48.562;14.440;2023-03-15T11:09:10;93462.00;;;14.90
41593;BMP180;28026;48.562;14.440;2023-03-15T11:12:07;93462.00;;;14.80
41593;BMP180;28026;48.562;14.440;2023-03-15T11:14:44;93467.00;;;14.40
41593;BMP180;28026;48.562;14.440;2023-03-15T11:17:30;93470.00;;;14.10
41593;BMP180;28026;48.562;14.440;2023-03-15T11:20:26;93468.00;;;13.80
41593;BMP180;28026;48.562;14.440;2023-03-15T11:23:27;93465.00;;;13.60
41593;BMP180;28026;48.562;14.440;2023-03-15T11:26:01;93466.00;;;13.80
41593;BMP180;28026;48.562;14.440;2023-03-15T11:28:35;93447.00;;;13.90
41593;BMP180;28026;48.562;14.440;2023-03-15T11:31:11;93454.00;;;14.00
41593;BMP180;28026;48.562;14.440;2023-03-15T11:34:49;93443.00;;;14.30
41593;BMP180;28026;48.562;14.440;2023-03-15T11:37:27;93460.00;;;14.60
41593;BMP180;28026;48.562;14.440;2023-03-15T11:40:24;93452.00;;;14.70
41593;BMP180;28026;48.562;14.440;2023-03-15T11:43:24;93465.00;;;14.80
41593;BMP180;28026;48.562;14.440;2023-03-15T11:46:23;93458.00;;;14.60
41593;BMP180;28026;48.562;14.440;2023-03-15T11:49:11;93452.00;;;14.60
41593;BMP180;28026;48.562;14.440;2023-03-15T11:51:47;93453.00;;;14.80
41593;BMP180;28026;48.562;14.440;2023-03-15T11:54:19;93453.00;;;14.60
41593;BMP180;28026;48.562;14.440;2023-03-15T11:57:02;93451.00;;;14.40
41593;BMP180;28026;48.562;14.440;2023-03-15T11:59:38;93460.00;;;14.50
41593;BMP180;28026;48.562;14.440;2023-03-15T12:04:55;93452.00;;;14.90
41593;BMP180;28026;48.562;14.440;2023-03-15T12:07:36;93447.00;;;15.00
41593;BMP180;28026;48.562;14.440;2023-03-15T12:10:29;93451.00;;;15.00
41593;BMP180;28026;48.562;14.440;2023-03-15T12:13:21;93447.00;;;14.40
41593;BMP180;28026;48.562;14.440;2023-03-15T12:15:54;93448.00;;;14.40
41593;BMP180;28026;48.562;14.440;2023-03-15T12:18:43;93449.00;;;14.60
41593;BMP180;28026;48.562;14.440;2023-03-15T12:21:39;93447.00;;;14.70
41593;BMP180;28026;48.562;14.440;2023-03-15T12:24:36;93445.00;;;14.80
41593;BMP180;28026;48.562;14.440;2023-03-15T12:27:18;93440.00;;;14.60
41593;BMP180;28026;48.562;14.440;2023-03-15T12:30:00;93444.00;;;14.50
41593;BMP180;28026;48.562;14.440;2023-03-15T12:32:46;93449.00;;;14.70
41593;BMP180;28026;48.562;14.440;2023-03-15T12:35:26;93442.00;;;14.80
41593;BMP180;28026;48.562;14.440;2023-03-15T12:38:01;93441.00;;;14.60
41593;BMP180;28026;48.562;14.440;2023-03-15T12:40:54;93448.00;;;14.60
41593;BMP180;28026;48.562;14.440;2023-03-15T12:43:43;93444.00;;;14.60
41593;BMP180;28026;48.562;14.440;2023-03-15T12:54:52;93464.00;;;14.00
41593;BMP180;28026;48.562;14.440;2023-03-15T12:57:36;93467.00;;;13.80
41593;BMP180;28026;48.562;14.440;2023-03-15T13:00:25;93465.00;;;13.50
41593;BMP180;28026;48.562;14.440;2023-03-15T13:03:06;93470.00;;;13.20
41593;BMP180;28026;48.562;14.440;2023-03-15T13:06:15;93464.00;;;12.90
41593;BMP180;28026;48.562;14.440;2023-03-15T13:19:13;93470.00;;;13.10
41593;BMP180;28026;48.562;14.440;2023-03-15T13:22:13;93473.00;;;13.50
41593;BMP180;28026;48.562;14.440;2023-03-15T13:25:25;93475.00;;;13.60
41593;BMP180;28026;48.562;14.440;2023-03-15T13:28:18;93482.00;;;13.60
41593;BMP180;28026;48.562;14.440;2023-03-15T13:30:54;93484.00;;;13.50
41593;BMP180;28026;48.562;14.440;2023-03-15T13:33:29;93492.00;;;13.50
41593;BMP180;28026;48.562;14.440;2023-03-15T13:36:09;93482.00;;;13.60
41593;BMP180;28026;48.562;14.440;2023-03-15T13:38:49;93481.00;;;13.70
41593;BMP180;28026;48.562;14.440;2023-03-15T13:41:28;93476.00;;;13.70
41593;BMP180;28026;48.562;14.440;2023-03-15T13:44:06;93479.00;;;14.00
41593;BMP180;28026;48.562;14.440;2023-03-15T13:46:48;93486.00;;;14.20
41593;BMP180;28026;48.562;14.440;2023-03-15T13:49:20;93490.00;;;14.10
41593;BMP180;28026;48.562;14.440;2023-03-15T13:51:52;93485.00;;;13.90
41593;BMP180;28026;48.562;14.440;2023-03-15T13:54:29;93484.00;;;14.00
41593;BMP180;28026;48.562;14.440;2023-03-15T13:57:10;93481.00;;;14.10
41593;BMP180;28026;48.562;14.440;2023-03-15T13:59:57;93495.00;;;14.20
41593;BMP180;28026;48.562;14.440;2023-03-15T14:02:46;93491.00;;;14.10
41593;BMP180;28026;48.562;14.440;2023-03-15T14:05:26;93485.00;;;14.30
41593;BMP180;28026;48.562;14.440;2023-03-15T14:08:06;93490.00;;;14.30
41593;BMP180;28026;48.562;14.440;2023-03-15T14:11:06;93503.00;;;14.30
41593;BMP180;28026;48.562;14.440;2023-03-15T14:13:55;93504.00;;;14.40
41593;BMP180;28026;48.562;14.440;2023-03-15T14:16:39;93509.00;;;14.50
41593;BMP180;28026;48.562;14.440;2023-03-15T14:19:22;93511.00;;;14.50
41593;BMP180;28026;48.562;14.440;2023-03-15T14:21:58;93523.00;;;14.50
41593;BMP180;28026;48.562;14.440;2023-03-15T14:24:41;93515.00;;;14.40
41593;BMP180;28026;48.562;14.440;2023-03-15T14:27:21;93519.00;;;14.50
41593;BMP180;28026;48.562;14.440;2023-03-15T14:30:00;93516.00;;;14.40
41593;BMP180;28026;48.562;14.440;2023-03-15T14:32:37;93497.00;;;14.10
41593;BMP180;28026;48.562;14.440;2023-03-15T14:35:31;93510.00;;;14.00
41593;BMP180;28026;48.562;14.440;2023-03-15T14:38:22;93514.00;;;13.90
41593;BMP180;28026;48.562;14.440;2023-03-15T14:41:30;93503.00;;;13.60
41593;BMP180;28026;48.562;14.440;2023-03-15T14:44:02;93499.00;;;13.40
41593;BMP180;28026;48.562;14.440;2023-03-15T14:46:33;93503.00;;;13.30
41593;BMP180;28026;48.562;14.440;2023-03-15T14:49:04;93501.00;;;13.20
41593;BMP180;28026;48.562;14.440;2023-03-15T14:51:35;93509.00;;;13.20
41593;BMP180;28026;48.562;14.440;2023-03-15T14:54:10;93513.00;;;13.30
41593;BMP180;28026;48.562;14.440;2023-03-15T14:56:42;93504.00;;;13.30
41593;BMP180;28026;48.562;14.440;2023-03-15T14:59:13;93518.00;;;13.40
41593;BMP180;28026;48.562;14.440;2023-03-15T15:01:49;93505.00;;;13.40
41593;BMP180;28026;48.562;14.440;2023-03-15T15:04:29;93505.00;;;13.50
41593;BMP180;28026;48.562;14.440;2023-03-15T15:07:03;93515.00;;;13.50
41593;BMP180;28026;48.562;14.440;2023-03-15T15:09:35;93510.00;;;13.50
41593;BMP180;28026;48.562;14.440;2023-03-15T15:12:08;93512.00;;;13.60
41593;BMP180;28026;48.562;14.440;2023-03-15T15:14:40;93519.00;;;13.60
41593;BMP180;28026;48.562;14.440;2023-03-15T15:17:12;93510.00;;;13.60
41593;BMP180;28026;48.562;14.440;2023-03-15T15:19:43;93517.00;;;13.80
41593;BMP180;28026;48.562;14.440;2023-03-15T15:22:13;93530.00;;;13.70
41593;BMP180;28026;48.562;14.440;2023-03-15T15:24:44;93525.00;;;13.60